sensor_id;sensor_type;location;lat;lon;timestamp;pressure;altitude;pressure_sealevel;temperature;humidity
40992;BME280;29633;49.168;9.848;2023-03-16T00:02:25;97232.03;;;6.43;65.36
40992;BME280;29633;49.168;9.848;2023-03-16T00:04:53;97234.00;;;6.38;65.06
40992;BME280;29633;49.168;9.848;2023-03-16T00:07:19;97245.41;;;6.34;65.22
40992;BME280;29633;49.168;9.848;2023-03-16T00:09:46;97254.84;;;6.34;65.12
40992;BME280;29633;49.168;9.848;2023-03-16T00:12:16;97242.75;;;6.36;65.19
40992;BME280;29633;49.168;9.848;2023-03-16T00:14:43;97246.22;;;6.35;65.30
40992;BME280;29633;49.168;9.848;2023-03-16T00:17:11;97234.19;;;6.35;64.98
40992;BME280;29633;49.168;9.848;2023-03-16T00:19:53;97248.72;;;6.36;65.13
40992;BME280;29633;49.168;9.848;2023-03-16T00:22:24;97248.63;;;6.38;65.06
40992;BME280;29633;49.168;9.848;2023-03-16T00:24:50;97249.53;;;6.37;65.16
40992;BME280;29633;49.168;9.848;2023-03-16T00:27:17;97247.97;;;6.34;65.03
40992;BME280;29633;49.168;9.848;2023-03-16T00:29:44;97248.97;;;6.32;65.21
40992;BME280;29633;49.168;9.848;2023-03-16T00:32:19;97245.63;;;6.30;65.30
40992;BME280;29633;49.168;9.848;2023-03-16T00:34:45;97254.19;;;6.30;65.24
40992;BME280;29633;49.168;9.848;2023-03-16T00:37:13;97249.06;;;6.30;65.03
40992;BME280;29633;49.168;9.848;2023-03-16T00:39:40;97255.22;;;6.28;65.02
40992;BME280;29633;49.168;9.848;2023-03-16T00:42:07;97253.72;;;6.24;65.05
40992;BME280;29633;49.168;9.848;2023-03-16T00:44:37;97249.75;;;6.18;65.07
40992;BME280;29633;49.168;9.848;2023-03-16T00:47:04;97248.25;;;6.14;65.33
40992;BME280;29633;49.168;9.848;2023-03-16T00:49:29;97255.16;;;6.14;65.18
40992;BME280;29633;49.168;9.848;2023-03-16T00:52:02;97256.06;;;6.13;65.22
40992;BME280;29633;49.168;9.848;2023-03-16T00:54:29;97244.09;;;6.12;65.22
40992;BME280;29633;49.168;9.848;2023-03-16T00:56:58;97245.84;;;6.11;65.02
40992;BME280;29633;49.168;9.848;2023-03-16T00:59:24;97251.97;;;6.09;65.04
40992;BME280;29633;49.168;9.848;2023-03-16T01:01:51;97252.09;;;6.07;64.99
40992;BME280;29633;49.168;9.848;2023-03-16T01:04:17;97247.00;;;6.06;64.99
40992;BME280;29633;49.168;9.848;2023-03-16T01:06:44;97244.44;;;6.06;65.01
40992;BME280;29633;49.168;9.848;2023-03-16T01:09:10;97251.41;;;6.04;65.13
40992;BME280;29633;49.168;9.848;2023-03-16T01:11:36;97253.22;;;6.02;65.14
40992;BME280;29633;49.168;9.848;2023-03-16T01:14:02;97247.25;;;6.01;64.96
40992;BME280;29633;49.168;9.848;2023-03-16T01:16:28;97253.41;;;5.99;65.01
40992;BME280;29633;49.168;9.848;2023-03-16T01:18:54;97245.03;;;5.95;65.12
40992;BME280;29633;49.168;9.848;2023-03-16T01:21:22;97242.38;;;5.97;65.00
40992;BME280;29633;49.168;9.848;2023-03-16T01:23:47;97241.53;;;5.96;65.01
40992;BME280;29633;49.168;9.848;2023-03-16T01:26:13;97238.22;;;5.94;65.17
40992;BME280;29633;49.168;9.848;2023-03-16T01:28:42;97234.00;;;5.93;65.10
40992;BME280;29633;49.168;9.848;2023-03-16T01:31:10;97233.16;;;5.92;65.19
40992;BME280;29633;49.168;9.848;2023-03-16T01:33:37;97231.50;;;5.91;65.11
40992;BME280;29633;49.168;9.848;2023-03-16T01:36:05;97228.00;;;5.92;64.97
40992;BME280;29633;49.168;9.848;2023-03-16T01:38:32;97230.59;;;5.92;65.17
40992;BME280;29633;49.168;9.848;2023-03-16T01:41:00;97231.50;;;5.91;65.21
40992;BME280;29633;49.168;9.848;2023-03-16T01:43:27;97223.69;;;5.93;64.85
40992;BME280;29633;49.168;9.848;2023-03-16T01:46:17;97220.28;;;5.92;64.90
40992;BME280;29633;49.168;9.848;2023-03-16T01:48:44;97224.50;;;5.93;65.00
40992;BME280;29633;49.168;9.848;2023-03-16T01:53:55;97224.59;;;5.92;64.89
40992;BME280;29633;49.168;9.848;2023-03-16T01:56:25;97222.03;;;5.92;64.86
40992;BME280;29633;49.168;9.848;2023-03-16T01:58:52;97228.19;;;5.89;64.71
40992;BME280;29633;49.168;9.848;2023-03-16T02:01:25;97226.53;;;5.88;64.80
40992;BME280;29633;49.168;9.848;2023-03-16T02:03:56;97227.34;;;5.89;64.68
40992;BME280;29633;49.168;9.848;2023-03-16T02:06:25;97220.53;;;5.88;64.74
40992;BME280;29633;49.168;9.848;2023-03-16T02:08:53;97221.50;;;5.85;64.75
40992;BME280;29633;49.168;9.848;2023-03-16T02:11:20;97229.53;;;5.79;64.81
40992;BME280;29633;49.168;9.848;2023-03-16T02:13:47;97217.69;;;5.77;65.05
40992;BME280;29633;49.168;9.848;2023-03-16T02:16:13;97213.38;;;5.77;65.05
40992;BME280;29633;49.168;9.848;2023-03-16T02:18:45;97220.19;;;5.78;64.93
40992;BME280;29633;49.168;9.848;2023-03-16T02:21:23;97225.34;;;5.78;64.79
40992;BME280;29633;49.168;9.848;2023-03-16T02:23:52;97226.31;;;5.76;65.03
40992;BME280;29633;49.168;9.848;2023-03-16T02:29:09;97216.59;;;5.65;65.00
40992;BME280;29633;49.168;9.848;2023-03-16T02:31:37;97204.91;;;5.60;65.11
40992;BME280;29633;49.168;9.848;2023-03-16T02:34:03;97200.66;;;5.59;65.07
40992;BME280;29633;49.168;9.848;2023-03-16T02:36:28;97199.00;;;5.58;65.14
40992;BME280;29633;49.168;9.848;2023-03-16T02:38:55;97198.34;;;5.54;65.13
40992;BME280;29633;49.168;9.848;2023-03-16T02:41:20;97194.03;;;5.55;65.22
40992;BME280;29633;49.168;9.848;2023-03-16T02:44:08;97200.19;;;5.52;65.26
40992;BME280;29633;49.168;9.848;2023-03-16T02:46:35;97187.50;;;5.49;65.18
40992;BME280;29633;49.168;9.848;2023-03-16T02:49:22;97189.13;;;5.50;65.02
40992;BME280;29633;49.168;9.848;2023-03-16T02:51:49;97189.13;;;5.50;65.08
40992;BME280;29633;49.168;9.848;2023-03-16T02:54:15;97185.66;;;5.51;65.18
40992;BME280;29633;49.168;9.848;2023-03-16T02:56:41;97183.97;;;5.50;65.31
40992;BME280;29633;49.168;9.848;2023-03-16T02:59:06;97182.34;;;5.49;64.90
40992;BME280;29633;49.168;9.848;2023-03-16T03:01:32;97177.09;;;5.51;65.01
40992;BME280;29633;49.168;9.848;2023-03-16T03:04:00;97184.41;;;5.42;64.96
40992;BME280;29633;49.168;9.848;2023-03-16T03:06:26;97190.47;;;5.41;65.26
40992;BME280;29633;49.168;9.848;2023-03-16T03:08:52;97181.25;;;5.37;65.27
40992;BME280;29633;49.168;9.848;2023-03-16T03:11:17;97184.56;;;5.39;65.30
40992;BME280;29633;49.168;9.848;2023-03-16T03:13:45;97192.19;;;5.41;64.98
40992;BME280;29633;49.168;9.848;2023-03-16T03:16:11;97187.91;;;5.41;65.01
40992;BME280;29633;49.168;9.848;2023-03-16T03:18:37;97192.13;;;5.42;64.91
40992;BME280;29633;49.168;9.848;2023-03-16T03:21:03;97188.78;;;5.40;64.73
40992;BME280;29633;49.168;9.848;2023-03-16T03:23:29;97192.13;;;5.42;64.84
40992;BME280;29633;49.168;9.848;2023-03-16T03:25:58;97189.47;;;5.44;64.64
40992;BME280;29633;49.168;9.848;2023-03-16T03:28:24;97186.88;;;5.44;64.75
40992;BME280;29633;49.168;9.848;2023-03-16T03:30:50;97178.34;;;5.43;64.81
40992;BME280;29633;49.168;9.848;2023-03-16T03:33:17;97185.22;;;5.43;64.89
40992;BME280;29633;49.168;9.848;2023-03-16T03:35:42;97179.34;;;5.41;64.65
40992;BME280;29633;49.168;9.848;2023-03-16T03:38:08;97180.47;;;5.35;64.85
40992;BME280;29633;49.168;9.848;2023-03-16T03:40:34;97168.75;;;5.31;64.94
40992;BME280;29633;49.168;9.848;2023-03-16T03:42:59;97167.97;;;5.29;64.95
40992;BME280;29633;49.168;9.848;2023-03-16T03:45:26;97176.00;;;5.23;65.06
40992;BME280;29633;49.168;9.848;2023-03-16T03:47:51;97178.66;;;5.22;65.05
40992;BME280;29633;49.168;9.848;2023-03-16T03:50:17;97178.59;;;5.23;65.14
40992;BME280;29633;49.168;9.848;2023-03-16T03:52:43;97175.00;;;5.26;65.07
40992;BME280;29633;49.168;9.848;2023-03-16T03:55:09;97171.53;;;5.27;64.87
40992;BME280;29633;49.168;9.848;2023-03-16T03:57:35;97174.00;;;5.28;64.98
40992;BME280;29633;49.168;9.848;2023-03-16T04:00:00;97177.69;;;5.24;64.91
40992;BME280;29633;49.168;9.848;2023-03-16T04:02:26;97177.69;;;5.24;65.11
40992;BME280;29633;49.168;9.848;2023-03-16T04:04:52;97177.69;;;5.24;65.07
40992;BME280;29633;49.168;9.848;2023-03-16T04:07:17;97169.88;;;5.26;65.17
40992;BME280;29633;49.168;9.848;2023-03-16T04:09:43;97159.53;;;5.27;65.15
40992;BME280;29633;49.168;9.848;2023-03-16T04:12:09;97152.66;;;5.28;64.89
40992;BME280;29633;49.168;9.848;2023-03-16T04:14:35;97150.81;;;5.30;64.99
40992;BME280;29633;49.168;9.848;2023-03-16T04:17:01;97153.31;;;5.31;65.03
40992;BME280;29633;49.168;9.848;2023-03-16T04:19:29;97157.63;;;5.31;64.92
40992;BME280;29633;49.168;9.848;2023-03-16T04:21:54;97158.53;;;5.30;64.91
40992;BME280;29633;49.168;9.848;2023-03-16T04:24:20;97161.03;;;5.31;64.92
40992;BME280;29633;49.168;9.848;2023-03-16T04:26:46;97160.09;;;5.32;65.00
40992;BME280;29633;49.168;9.848;2023-03-16T04:29:13;97160.09;;;5.32;64.92
40992;BME280;29633;49.168;9.848;2023-03-16T04:31:43;97156.56;;;5.35;64.85
40992;BME280;29633;49.168;9.848;2023-03-16T04:34:08;97152.13;;;5.37;64.68
40992;BME280;29633;49.168;9.848;2023-03-16T04:36:36;97154.72;;;5.37;64.83
40992;BME280;29633;49.168;9.848;2023-03-16T04:39:04;97148.72;;;5.36;64.90
40992;BME280;29633;49.168;9.848;2023-03-16T04:41:30;97142.69;;;5.37;64.49
40992;BME280;29633;49.168;9.848;2023-03-16T04:43:56;97139.28;;;5.37;64.77
40992;BME280;29633;49.168;9.848;2023-03-16T04:46:23;97146.25;;;5.35;64.71
40992;BME280;29633;49.168;9.848;2023-03-16T04:48:51;97152.97;;;5.37;64.77
40992;BME280;29633;49.168;9.848;2023-03-16T04:51:17;97152.06;;;5.38;64.66
40992;BME280;29633;49.168;9.848;2023-03-16T04:53:43;97157.94;;;5.40;64.62
40992;BME280;29633;49.168;9.848;2023-03-16T04:56:09;97153.56;;;5.42;64.66
40992;BME280;29633;49.168;9.848;2023-03-16T04:58:43;97155.31;;;5.42;64.47
40992;BME280;29633;49.168;9.848;2023-03-16T05:01:09;97151.00;;;5.42;64.65
40992;BME280;29633;49.168;9.848;2023-03-16T05:03:35;97154.47;;;5.41;64.61
40992;BME280;29633;49.168;9.848;2023-03-16T05:06:00;97146.81;;;5.40;64.45
40992;BME280;29633;49.168;9.848;2023-03-16T05:08:26;97132.31;;;5.39;64.74
40992;BME280;29633;49.168;9.848;2023-03-16T05:10:58;97133.06;;;5.41;64.71
40992;BME280;29633;49.168;9.848;2023-03-16T05:13:23;97137.56;;;5.37;64.69
40992;BME280;29633;49.168;9.848;2023-03-16T05:15:49;97146.25;;;5.35;64.60
40992;BME280;29633;49.168;9.848;2023-03-16T05:18:19;97137.06;;;5.31;64.54
40992;BME280;29633;49.168;9.848;2023-03-16T05:20:44;97134.66;;;5.28;64.83
40992;BME280;29633;49.168;9.848;2023-03-16T05:23:10;97141.69;;;5.24;64.77
40992;BME280;29633;49.168;9.848;2023-03-16T05:25:36;97126.28;;;5.24;64.88
40992;BME280;29633;49.168;9.848;2023-03-16T05:28:02;97139.78;;;5.28;64.71
40992;BME280;29633;49.168;9.848;2023-03-16T05:30:29;97148.25;;;5.30;64.37
40992;BME280;29633;49.168;9.848;2023-03-16T05:32:55;97142.19;;;5.31;64.67
40992;BME280;29633;49.168;9.848;2023-03-16T05:35:22;97154.94;;;5.32;64.53
40992;BME280;29633;49.168;9.848;2023-03-16T05:37:48;97145.50;;;5.33;64.52
40992;BME280;29633;49.168;9.848;2023-03-16T05:40:14;97143.03;;;5.31;64.46
40992;BME280;29633;49.168;9.848;2023-03-16T05:42:48;97136.13;;;5.32;64.86
40992;BME280;29633;49.168;9.848;2023-03-16T05:45:15;97135.22;;;5.33;64.67
40992;BME280;29633;49.168;9.848;2023-03-16T05:47:41;97140.47;;;5.31;64.56
40992;BME280;29633;49.168;9.848;2023-03-16T05:50:09;97141.38;;;5.30;64.69
40992;BME280;29633;49.168;9.848;2023-03-16T05:52:38;97137.88;;;5.31;64.58
40992;BME280;29633;49.168;9.848;2023-03-16T05:55:05;97138.47;;;5.36;64.53
40992;BME280;29633;49.168;9.848;2023-03-16T05:57:31;97132.31;;;5.39;64.45
40992;BME280;29633;49.168;9.848;2023-03-16T05:59:58;97134.75;;;5.42;64.54
40992;BME280;29633;49.168;9.848;2023-03-16T06:02:24;97133.72;;;5.44;64.50
40992;BME280;29633;49.168;9.848;2023-03-16T06:04:50;97124.94;;;5.49;64.59
40992;BME280;29633;49.168;9.848;2023-03-16T06:07:15;97126.44;;;5.53;64.54
40992;BME280;29633;49.168;9.848;2023-03-16T06:09:41;97132.25;;;5.56;64.51
40992;BME280;29633;49.168;9.848;2023-03-16T06:12:07;97133.75;;;5.60;64.20
40992;BME280;29633;49.168;9.848;2023-03-16T06:14:34;97140.38;;;5.64;64.44
40992;BME280;29633;49.168;9.848;2023-03-16T06:17:00;97142.59;;;5.70;64.54
40992;BME280;29633;49.168;9.848;2023-03-16T06:19:25;97142.34;;;5.75;64.40
40992;BME280;29633;49.168;9.848;2023-03-16T06:21:51;97140.44;;;5.78;64.46
40992;BME280;29633;49.168;9.848;2023-03-16T06:24:16;97136.69;;;5.84;64.54
40992;BME280;29633;49.168;9.848;2023-03-16T06:26:42;97138.13;;;5.89;64.39
40992;BME280;29633;49.168;9.848;2023-03-16T06:29:08;97124.16;;;5.93;64.45
40992;BME280;29633;49.168;9.848;2023-03-16T06:31:33;97125.56;;;5.99;64.43
40992;BME280;29633;49.168;9.848;2023-03-16T06:33:59;97131.28;;;6.04;64.39
40992;BME280;29633;49.168;9.848;2023-03-16T06:36:25;97131.84;;;6.09;64.46
40992;BME280;29633;49.168;9.848;2023-03-16T06:38:51;97133.34;;;6.13;64.46
40992;BME280;29633;49.168;9.848;2023-03-16T06:41:17;97134.91;;;6.16;64.50
40992;BME280;29633;49.168;9.848;2023-03-16T06:43:42;97132.16;;;6.19;64.45
40992;BME280;29633;49.168;9.848;2023-03-16T06:46:08;97134.41;;;6.25;64.45
40992;BME280;29633;49.168;9.848;2023-03-16T06:48:34;97131.28;;;6.34;64.42
40992;BME280;29633;49.168;9.848;2023-03-16T06:51:00;97132.88;;;6.36;64.54
40992;BME280;29633;49.168;9.848;2023-03-16T06:53:25;97139.56;;;6.39;64.42
40992;BME280;29633;49.168;9.848;2023-03-16T06:55:51;97138.31;;;6.46;64.44
40992;BME280;29633;49.168;9.848;2023-03-16T06:58:19;97140.50;;;6.52;64.62
40992;BME280;29633;49.168;9.848;2023-03-16T07:00:45;97135.81;;;6.59;64.49
40992;BME280;29633;49.168;9.848;2023-03-16T07:03:11;97132.91;;;6.65;64.52
40992;BME280;29633;49.168;9.848;2023-03-16T07:05:37;97133.38;;;6.71;64.59
40992;BME280;29633;49.168;9.848;2023-03-16T07:08:02;97143.31;;;6.77;64.47
40992;BME280;29633;49.168;9.848;2023-03-16T07:10:29;97141.28;;;6.82;64.50
40992;BME280;29633;49.168;9.848;2023-03-16T07:12:55;97140.09;;;6.88;64.53
40992;BME280;29633;49.168;9.848;2023-03-16T07:15:20;97135.69;;;6.90;64.64
40992;BME280;29633;49.168;9.848;2023-03-16T07:17:46;97141.47;;;6.93;64.69
40992;BME280;29633;49.168;9.848;2023-03-16T07:20:12;97142.13;;;6.97;64.70
40992;BME280;29633;49.168;9.848;2023-03-16T07:22:38;97145.34;;;7.01;64.94
40992;BME280;29633;49.168;9.848;2023-03-16T07:25:05;97151.16;;;7.04;64.67
40992;BME280;29633;49.168;9.848;2023-03-16T07:27:31;97148.31;;;7.09;64.83
40992;BME280;29633;49.168;9.848;2023-03-16T07:29:57;97158.13;;;7.16;64.86
40992;BME280;29633;49.168;9.848;2023-03-16T07:32:24;97155.28;;;7.21;64.77
40992;BME280;29633;49.168;9.848;2023-03-16T07:34:49;97157.66;;;7.24;64.83
40992;BME280;29633;49.168;9.848;2023-03-16T07:37:15;97160.06;;;7.27;64.98
40992;BME280;29633;49.168;9.848;2023-03-16T07:39:41;97157.31;;;7.30;65.05
40992;BME280;29633;49.168;9.848;2023-03-16T07:42:07;97160.53;;;7.33;65.07
40992;BME280;29633;49.168;9.848;2023-03-16T07:44:33;97151.47;;;7.40;65.07
40992;BME280;29633;49.168;9.848;2023-03-16T07:46:58;97158.00;;;7.46;64.94
40992;BME280;29633;49.168;9.848;2023-03-16T07:49:24;97155.78;;;7.54;64.94
40992;BME280;29633;49.168;9.848;2023-03-16T07:51:49;97153.75;;;7.59;64.91
40992;BME280;29633;49.168;9.848;2023-03-16T07:54:16;97157.63;;;7.66;64.92
40992;BME280;29633;49.168;9.848;2023-03-16T07:56:41;97165.88;;;7.71;64.88
40992;BME280;29633;49.168;9.848;2023-03-16T07:59:07;97154.16;;;7.80;65.13
40992;BME280;29633;49.168;9.848;2023-03-16T08:01:33;97147.75;;;7.85;65.08
40992;BME280;29633;49.168;9.848;2023-03-16T08:03:59;97140.56;;;7.90;65.13
40992;BME280;29633;49.168;9.848;2023-03-16T08:06:26;97144.50;;;7.96;65.34
40992;BME280;29633;49.168;9.848;2023-03-16T08:08:52;97146.59;;;8.04;65.06
40992;BME280;29633;49.168;9.848;2023-03-16T08:11:17;97145.38;;;8.09;65.27
40992;BME280;29633;49.168;9.848;2023-03-16T08:13:51;97149.09;;;8.18;65.30
40992;BME280;29633;49.168;9.848;2023-03-16T08:16:24;97134.16;;;8.23;65.15
40992;BME280;29633;49.168;9.848;2023-03-16T08:18:51;97134.63;;;8.29;65.07
40992;BME280;29633;49.168;9.848;2023-03-16T08:21:17;97146.09;;;8.38;65.05
40992;BME280;29633;49.168;9.848;2023-03-16T08:23:44;97141.28;;;8.46;65.10
40992;BME280;29633;49.168;9.848;2023-03-16T08:26:18;97139.00;;;8.54;64.93
40992;BME280;29633;49.168;9.848;2023-03-16T08:28:44;97144.47;;;8.62;64.94
40992;BME280;29633;49.168;9.848;2023-03-16T08:31:10;97149.13;;;8.70;65.05
40992;BME280;29633;49.168;9.848;2023-03-16T08:33:36;97140.03;;;8.77;65.02
40992;BME280;29633;49.168;9.848;2023-03-16T08:36:05;97141.06;;;8.87;64.87
40992;BME280;29633;49.168;9.848;2023-03-16T08:38:31;97143.88;;;8.97;65.06
40992;BME280;29633;49.168;9.848;2023-03-16T08:40:58;97142.63;;;9.02;65.09
40992;BME280;29633;49.168;9.848;2023-03-16T08:43:24;97145.53;;;9.10;65.06
40992;BME280;29633;49.168;9.848;2023-03-16T08:45:51;97141.56;;;9.17;65.08
40992;BME280;29633;49.168;9.848;2023-03-16T08:48:17;97141.66;;;9.28;64.91
40992;BME280;29633;49.168;9.848;2023-03-16T08:50:43;97140.09;;;9.38;64.96
40992;BME280;29633;49.168;9.848;2023-03-16T08:53:09;97139.47;;;9.48;64.95
40992;BME280;29633;49.168;9.848;2023-03-16T08:55:35;97132.56;;;9.59;64.91
40992;BME280;29633;49.168;9.848;2023-03-16T08:58:01;97139.72;;;9.68;64.85
40992;BME280;29633;49.168;9.848;2023-03-16T09:00:27;97131.19;;;9.79;64.85
40992;BME280;29633;49.168;9.848;2023-03-16T09:02:54;97128.50;;;9.92;64.67
40992;BME280;29633;49.168;9.848;2023-03-16T09:05:20;97123.66;;;10.11;64.51
40992;BME280;29633;49.168;9.848;2023-03-16T09:07:47;97130.34;;;10.26;64.37
40992;BME280;29633;49.168;9.848;2023-03-16T09:10:13;97124.28;;;10.38;64.20
40992;BME280;29633;49.168;9.848;2023-03-16T09:12:41;97126.69;;;10.52;64.05
40992;BME280;29633;49.168;9.848;2023-03-16T09:15:09;97126.34;;;10.68;63.99
40992;BME280;29633;49.168;9.848;2023-03-16T09:17:37;97123.91;;;10.77;64.24
40992;BME280;29633;49.168;9.848;2023-03-16T09:20:03;97111.16;;;10.85;64.11
40992;BME280;29633;49.168;9.848;2023-03-16T09:22:34;97121.78;;;10.94;63.98
40992;BME280;29633;49.168;9.848;2023-03-16T09:25:00;97127.22;;;11.02;64.11
40992;BME280;29633;49.168;9.848;2023-03-16T09:27:26;97124.03;;;11.09;64.08
40992;BME280;29633;49.168;9.848;2023-03-16T09:29:52;97116.59;;;11.16;64.31
40992;BME280;29633;49.168;9.848;2023-03-16T09:32:21;97111.66;;;11.24;64.25
40992;BME280;29633;49.168;9.848;2023-03-16T09:34:47;97112.25;;;11.27;64.50
40992;BME280;29633;49.168;9.848;2023-03-16T09:37:12;97116.25;;;11.31;64.25
40992;BME280;29633;49.168;9.848;2023-03-16T09:39:41;97117.53;;;11.37;64.45
40992;BME280;29633;49.168;9.848;2023-03-16T09:45:17;97107.84;;;11.50;64.36
40992;BME280;29633;49.168;9.848;2023-03-16T09:47:48;97109.25;;;11.54;64.63
40992;BME280;29633;49.168;9.848;2023-03-16T09:50:28;97109.72;;;11.59;64.45
40992;BME280;29633;49.168;9.848;2023-03-16T09:56:01;97105.56;;;11.68;64.79
40992;BME280;29633;49.168;9.848;2023-03-16T09:58:27;97099.81;;;11.75;64.73
40992;BME280;29633;49.168;9.848;2023-03-16T10:06:30;97079.19;;;11.95;64.63
40992;BME280;29633;49.168;9.848;2023-03-16T10:09:23;97079.63;;;12.00;64.70
40992;BME280;29633;49.168;9.848;2023-03-16T10:11:53;97073.81;;;12.07;64.76
40992;BME280;29633;49.168;9.848;2023-03-16T10:14:31;97079.34;;;12.14;64.67
40992;BME280;29633;49.168;9.848;2023-03-16T10:22:25;97080.28;;;12.33;64.88
40992;BME280;29633;49.168;9.848;2023-03-16T10:27:42;97068.88;;;12.46;64.61
40992;BME280;29633;49.168;9.848;2023-03-16T10:33:12;97072.00;;;12.60;64.83
40992;BME280;29633;49.168;9.848;2023-03-16T10:43:56;97057.78;;;12.95;64.56
40992;BME280;29633;49.168;9.848;2023-03-16T10:46:26;97054.97;;;13.07;64.51
40992;BME280;29633;49.168;9.848;2023-03-16T10:48:57;97048.84;;;13.18;64.55
40992;BME280;29633;49.168;9.848;2023-03-16T10:51:35;97054.34;;;13.24;64.55
40992;BME280;29633;49.168;9.848;2023-03-16T10:54:15;97054.50;;;13.32;64.47
40992;BME280;29633;49.168;9.848;2023-03-16T10:56:44;97043.00;;;13.35;64.57
40992;BME280;29633;49.168;9.848;2023-03-16T11:01:48;97041.50;;;13.32;64.75
40992;BME280;29633;49.168;9.848;2023-03-16T11:04:14;97038.91;;;13.32;64.71
40992;BME280;29633;49.168;9.848;2023-03-16T11:06:55;97038.78;;;13.34;64.57
40992;BME280;29633;49.168;9.848;2023-03-16T11:09:30;97038.63;;;13.36;64.51
40992;BME280;29633;49.168;9.848;2023-03-16T11:11:58;97040.28;;;13.37;64.79
40992;BME280;29633;49.168;9.848;2023-03-16T11:14:26;97039.84;;;13.31;64.72
40992;BME280;29633;49.168;9.848;2023-03-16T11:19:43;97049.31;;;13.42;64.55
40992;BME280;29633;49.168;9.848;2023-03-16T11:22:17;97051.94;;;13.42;64.62
40992;BME280;29633;49.168;9.848;2023-03-16T11:24:52;97056.34;;;13.42;64.75
40992;BME280;29633;49.168;9.848;2023-03-16T11:30:00;97057.84;;;13.44;64.45
40992;BME280;29633;49.168;9.848;2023-03-16T11:32:35;97051.81;;;13.44;64.81
40992;BME280;29633;49.168;9.848;2023-03-16T11:35:10;97048.25;;;13.45;64.55
40992;BME280;29633;49.168;9.848;2023-03-16T11:43:01;97041.38;;;13.44;64.66
40992;BME280;29633;49.168;9.848;2023-03-16T11:51:04;97022.50;;;13.51;64.50
40992;BME280;29633;49.168;9.848;2023-03-16T11:56:17;97010.28;;;13.61;64.42
40992;BME280;29633;49.168;9.848;2023-03-16T11:58:56;97013.72;;;13.71;64.46
40992;BME280;29633;49.168;9.848;2023-03-16T12:04:32;97013.47;;;13.84;64.54
40992;BME280;29633;49.168;9.848;2023-03-16T12:10:11;97012.22;;;13.98;64.35
40992;BME280;29633;49.168;9.848;2023-03-16T12:13:14;97004.81;;;14.03;64.52
40992;BME280;29633;49.168;9.848;2023-03-16T12:15:54;97006.28;;;14.15;64.30
40992;BME280;29633;49.168;9.848;2023-03-16T12:21:09;97001.47;;;14.29;64.21
40992;BME280;29633;49.168;9.848;2023-03-16T12:26:13;96990.38;;;14.37;64.27
40992;BME280;29633;49.168;9.848;2023-03-16T12:28:39;96990.91;;;14.41;64.42
40992;BME280;29633;49.168;9.848;2023-03-16T12:31:09;96990.91;;;14.41;64.40
40992;BME280;29633;49.168;9.848;2023-03-16T12:43:07;96970.63;;;14.71;64.24
40992;BME280;29633;49.168;9.848;2023-03-16T12:45:42;96972.66;;;14.77;64.43
40992;BME280;29633;49.168;9.848;2023-03-16T12:48:36;96969.75;;;14.81;64.27
40992;BME280;29633;49.168;9.848;2023-03-16T12:51:03;96964.78;;;14.87;64.36
40992;BME280;29633;49.168;9.848;2023-03-16T12:53:44;96962.78;;;14.99;64.24
40992;BME280;29633;49.168;9.848;2023-03-16T12:56:16;96963.63;;;14.99;64.43
40992;BME280;29633;49.168;9.848;2023-03-16T12:58:45;96958.94;;;15.03;64.21
40992;BME280;29633;49.168;9.848;2023-03-16T13:01:12;96965.22;;;15.10;64.42
40992;BME280;29633;49.168;9.848;2023-03-16T13:03:41;96959.25;;;15.17;64.00
40992;BME280;29633;49.168;9.848;2023-03-16T13:06:06;96961.44;;;15.22;64.22
40992;BME280;29633;49.168;9.848;2023-03-16T13:08:42;96958.09;;;15.30;64.10
40992;BME280;29633;49.168;9.848;2023-03-16T13:11:10;96962.19;;;15.32;64.12
40992;BME280;29633;49.168;9.848;2023-03-16T13:16:28;96962.63;;;15.45;63.95
40992;BME280;29633;49.168;9.848;2023-03-16T13:18:55;96959.47;;;15.51;63.95
40992;BME280;29633;49.168;9.848;2023-03-16T13:21:39;96954.03;;;15.62;63.64
40992;BME280;29633;49.168;9.848;2023-03-16T13:24:25;96945.94;;;15.73;63.68
40992;BME280;29633;49.168;9.848;2023-03-16T13:27:04;96941.25;;;15.77;63.75
40992;BME280;29633;49.168;9.848;2023-03-16T13:29:31;96945.03;;;15.83;63.65
40992;BME280;29633;49.168;9.848;2023-03-16T13:32:02;96932.56;;;15.94;63.64
40992;BME280;29633;49.168;9.848;2023-03-16T13:34:34;96925.56;;;16.20;63.46
40992;BME280;29633;49.168;9.848;2023-03-16T13:37:01;96929.22;;;16.36;63.58
40992;BME280;29633;49.168;9.848;2023-03-16T13:39:29;96935.59;;;16.59;63.67
40992;BME280;29633;49.168;9.848;2023-03-16T13:44:33;96922.50;;;17.01;65.35
40992;BME280;29633;49.168;9.848;2023-03-16T13:47:04;96921.09;;;17.14;66.39
40992;BME280;29633;49.168;9.848;2023-03-16T13:49:30;96930.44;;;17.25;66.68
40992;BME280;29633;49.168;9.848;2023-03-16T13:51:56;96925.22;;;17.41;66.69
40992;BME280;29633;49.168;9.848;2023-03-16T13:54:23;96921.31;;;17.53;66.43
40992;BME280;29633;49.168;9.848;2023-03-16T13:56:58;96919.22;;;17.65;66.07
40992;BME280;29633;49.168;9.848;2023-03-16T13:59:27;96905.59;;;17.78;65.79
40992;BME280;29633;49.168;9.848;2023-03-16T14:01:58;96907.75;;;17.82;65.39
40992;BME280;29633;49.168;9.848;2023-03-16T14:04:29;96904.59;;;17.95;65.04
40992;BME280;29633;49.168;9.848;2023-03-16T14:07:00;96911.00;;;17.92;64.86
40992;BME280;29633;49.168;9.848;2023-03-16T14:09:35;96910.81;;;18.02;64.44
40992;BME280;29633;49.168;9.848;2023-03-16T14:12:03;96893.78;;;18.06;64.16
40992;BME280;29633;49.168;9.848;2023-03-16T14:14:35;96889.53;;;18.05;63.68
40992;BME280;29633;49.168;9.848;2023-03-16T14:17:07;96899.34;;;17.95;63.41
40992;BME280;29633;49.168;9.848;2023-03-16T14:19:39;96894.94;;;17.95;63.06
40992;BME280;29633;49.168;9.848;2023-03-16T14:22:11;96901.53;;;17.83;62.62
40992;BME280;29633;49.168;9.848;2023-03-16T14:24:37;96884.00;;;17.76;62.36
40992;BME280;29633;49.168;9.848;2023-03-16T14:27:20;96887.25;;;17.78;62.15
40992;BME280;29633;49.168;9.848;2023-03-16T14:29:58;96879.06;;;17.64;61.88
40992;BME280;29633;49.168;9.848;2023-03-16T14:32:29;96867.91;;;17.54;61.96
40992;BME280;29633;49.168;9.848;2023-03-16T14:35:19;96861.00;;;17.45;61.80
40992;BME280;29633;49.168;9.848;2023-03-16T14:37:45;96861.81;;;17.30;61.76
40992;BME280;29633;49.168;9.848;2023-03-16T14:40:23;96862.63;;;17.22;61.77